Aérodrome :
LOGIN :

S'inscrire | Disclaimer

   EN    FR    IT 

 










Légende :    VFR   VFR Marginal   IFR   IFR Intensif   IFR Très Intensif
Visi : 
Plafond : 
>= 8 km
>= 3000ft
5 à 8 km
1000 à 3000 ft
1500m à 5 km
500 à 1000 ft
800 à 1500m
200 à 500 ft
< 800m
< 200 ft
Symboles :   Orages  Brouillard  Fortes neiges  Fortes précipitations  Vent > 20 kt
SIGMETs :   Divers  Orages  Givrage  Turbulence  Onde Orograph.  Cendres Volcan.







- Altitude de l'aérodrome : 157 ft
- Code IATA : SXF


EDDB - Berlin Schönefeld

DERNIER METAR :
  • 291720Z 29007KT 9999 VCSH SCT035 SCT076 09/00 Q1018 NOSIG

METARs EXPIRÉS :
  • 291650Z 35006KT 300V030 9999 SCT035 SCT076 09/01 Q1018 NOSIG
  • 291620Z 02008KT 9999 VCSH SCT034CB SCT066 09/01 Q1018 NOSIG
  • 291550Z 36011KT 9999 VCSH BKN034CB SCT080 09/01 Q1017 NOSIG
  • 291520Z 34014KT 9999 VCSH BKN056CB SCT072 09/01 Q1017 NOSIG
  • 291450Z 28010KT 250V310 9999 VCSH BKN052CB SCT060 10/M02 Q1017 NOSIG

TAF TAF EDDB
Valide du 29 à 18h jusqu'au 30 à 18h UTC


291700Z 2918/3018 01005KT 9999 SCT040
BECMG 2918/2921 VRB03KT
PROB30
TEMPO 3003/3006 2500 BCFG
BECMG 3005/3008 10010KT
BECMG 3009/3012 10015G25KT
BECMG 3015/3018 09011KT
Pas de NOTAMs connus pour ce terrain.



MET'MAP, la Météo Aéronautique d'un coup d'oeil ! - Copyright ORBIFLY Décembre 2007 - Disclaimer

ORBIFLY MET'MAP TEAM :

Programmation & Développement : Alexandra Zaïnal
Conception & Développement : Baudouin d'Aumeries
Co-Programmation & Développement : Marc-Olivier Méhu
Soutien technique & logistique : Manuel Goepfert

Contact : metmap@orbifly.com




SOURCES & CREDITS :

   NOAA